createdAt,value
2023-09-06T02:10:20.113Z,75.09
2023-09-06T03:18:28.815Z,63.78
2023-09-06T03:28:32.383Z,67.75
2023-09-06T03:38:38.398Z,68.83
2023-09-06T03:48:42.845Z,61.97
2023-09-06T03:58:47.351Z,53.85
2023-09-06T04:08:55.181Z,52.15
2023-09-06T04:19:02.711Z,52.86
2023-09-06T04:29:06.674Z,50.50
2023-09-06T04:39:11.150Z,50.22
2023-09-06T04:49:31.583Z,50.16
2023-09-06T04:59:38.136Z,47.68
2023-09-06T05:09:42.004Z,46.89
2023-09-06T05:19:56.829Z,46.03
2023-09-06T05:29:59.871Z,48.50
2023-09-06T05:40:15.400Z,43.28
2023-09-06T05:50:18.804Z,43.51
2023-09-06T06:00:25.961Z,39.03
2023-09-06T06:10:38.133Z,40.97
2023-09-06T06:32:50.969Z,46.45
2023-09-06T06:43:15.624Z,47.72
2023-09-06T06:53:34.138Z,46.42
2023-09-06T07:03:39.875Z,42.53
2023-09-06T07:13:59.704Z,41.67
2023-09-06T07:24:08.620Z,43.06
2023-09-06T07:34:26.200Z,41.26
2023-09-06T07:44:35.874Z,41.86
2023-09-06T07:54:50.380Z,41.82
2023-09-06T08:15:42.453Z,41.85
2023-09-06T08:25:54.078Z,40.94
2023-09-06T08:36:05.563Z,40.76
2023-09-06T08:46:43.731Z,39.80
2023-09-06T09:07:18.651Z,40.35
2023-09-06T09:17:25.245Z,39.82
2023-09-06T09:27:29.886Z,39.87
2023-09-06T09:37:52.209Z,39.49
2023-09-06T09:47:58.540Z,38.18
2023-09-06T09:58:09.740Z,39.11
2023-09-06T10:08:15.791Z,39.78
2023-09-06T10:18:23.887Z,40.46
2023-09-06T10:28:27.878Z,41.82
2023-09-06T10:38:35.887Z,42.84
2023-09-06T10:48:41.600Z,43.83
2023-09-06T10:58:47.827Z,44.21
2023-09-06T11:08:52.379Z,45.23
2023-09-06T11:18:58.304Z,46.21
2023-09-06T11:29:07.710Z,46.87
2023-09-06T11:39:24.102Z,47.51
2023-09-06T11:49:31.926Z,49.08
2023-09-06T11:59:45.800Z,49.40
2023-09-06T12:20:24.749Z,47.70
2023-09-06T12:30:41.514Z,46.19
2023-09-06T12:40:47.997Z,45.22
2023-09-06T12:50:57.769Z,44.54
2023-09-06T13:01:12.934Z,44.00
2023-09-06T13:11:21.995Z,44.75
2023-09-06T13:21:28.072Z,45.97
2023-09-06T13:32:16.171Z,47.16
2023-09-06T13:42:22.473Z,48.68
2023-09-06T13:52:46.786Z,50.42
2023-09-06T14:14:39.919Z,63.94
2023-09-06T14:24:53.166Z,75.72
2023-09-06T14:36:04.557Z,82.23
2023-09-06T14:47:49.100Z,85.61
2023-09-06T15:09:30.079Z,87.64
2023-09-06T15:19:48.899Z,88.24
2023-09-06T15:30:10.224Z,88.88
2023-09-06T15:40:16.812Z,90.43
2023-09-06T15:50:25.576Z,87.88
2023-09-06T16:00:33.891Z,86.78
2023-09-06T16:10:39.325Z,87.63
2023-09-06T16:31:47.143Z,82.89
2023-09-06T17:15:14.469Z,79.98
2023-09-06T17:25:22.285Z,80.82
2023-09-06T17:35:28.781Z,80.90
2023-09-06T17:45:36.450Z,78.37
2023-09-06T17:55:43.222Z,76.48
2023-09-06T18:05:57.345Z,72.98
2023-09-06T18:16:06.729Z,71.13
2023-09-06T18:26:13.983Z,71.47
2023-09-06T18:36:24.791Z,70.97
2023-09-06T18:46:31.256Z,71.42
2023-09-06T18:56:38.896Z,71.78
2023-09-06T19:06:48.478Z,71.53
2023-09-06T19:16:59.424Z,72.18
2023-09-06T19:27:05.723Z,73.67
2023-09-06T19:37:12.439Z,74.81
2023-09-06T19:47:23.523Z,75.95
2023-09-06T19:57:32.047Z,76.31
2023-09-06T20:08:10.722Z,76.55
2023-09-06T21:02:54.783Z,78.21
2023-09-06T21:13:43.668Z,78.45
2023-09-06T21:25:03.229Z,79.23
2023-09-06T22:32:42.288Z,76.94
2023-09-06T22:43:15.945Z,76.90
2023-09-06T22:53:59.431Z,77.54
2023-09-06T23:04:42.817Z,77.47
2023-09-06T23:15:18.728Z,78.25
2023-09-06T23:25:39.904Z,78.55
2023-09-06T23:36:36.537Z,79.60
2023-09-06T23:46:53.833Z,80.49
2023-09-06T23:56:59.830Z,80.57
